This is the latest recevied weather packets stored in our database for station/object N3WXO-1. If no packets are shown the sender has not sent any weather packets the latest 1 day(s).
| Time | Temp. | Humidity | Pressure | Rain* | Wind** | Luminosity | Snow |
|---|---|---|---|---|---|---|---|
| 1778035226 | 18.89° C | 60% | 1009.3 hPa | 0 mm | - | 0 W/m² | - |
| 1778034626 | 19.44° C | 59% | 1009.2 hPa | 0 mm | - | 0 W/m² | - |
| 1778034314 | 19.44° C | 60% | 1009.2 hPa | 0 mm | - | 0 W/m² | - |
| 1778034028 | 20° C | 59% | 1009.2 hPa | 0 mm | - | 0 W/m² | - |
| 1778033718 | 20.56° C | 56% | 1009.1 hPa | 0 mm | - | 0 W/m² | - |
| 1778032832 | 21.67° C | 51% | 1009.1 hPa | 0 mm | - | 0 W/m² | - |
| 1778032526 | 21.67° C | 51% | 1009.1 hPa | 0 mm | - | 0 W/m² | - |
| 1778032215 | 22.22° C | 50% | 1009.1 hPa | 0 mm | - | 0 W/m² | - |
| 1778031927 | 22.22° C | 48% | 1009 hPa | 0 mm | - | 0 W/m² | - |
| 1778031620 | 22.78° C | 48% | 1009 hPa | 0 mm | - | 0 W/m² | - |
| 1778031031 | 23.33° C | 46% | 1008.9 hPa | 0 mm | - | 0 W/m² | - |
| 1778030726 | 23.33° C | 46% | 1008.9 hPa | 0 mm | - | 0 W/m² | - |
| 1778030422 | 23.33° C | 46% | 1008.7 hPa | 0 mm | - | 0 W/m² | - |
| 1778030119 | 23.33° C | 46% | 1008.7 hPa | 0 mm | - | 0 W/m² | - |
| 1778029828 | 23.33° C | 45% | 1008.6 hPa | 0 mm | - | 0 W/m² | - |
| 1778028927 | 23.89° C | 44% | 1008.4 hPa | 0 mm | - | 0 W/m² | - |
| 1778028318 | 23.89° C | 44% | 1008.3 hPa | 0 mm | - | 0 W/m² | - |
| 1778028015 | 23.89° C | 44% | 1008.2 hPa | 0 mm | - | 0 W/m² | - |
| 1778027120 | 23.89° C | 44% | 1008.2 hPa | 0 mm | - | 0 W/m² | - |
| 1778026828 | 24.44° C | 44% | 1008.2 hPa | 0 mm | - | 0 W/m² | - |
| 1778026520 | 24.44° C | 43% | 1008.1 hPa | 0 mm | - | 0 W/m² | - |
| 1778025915 | 25° C | 42% | 1008 hPa | 0 mm | - | 0 W/m² | - |
| 1778025317 | 25.56° C | 41% | 1007.9 hPa | 0 mm | - | 0 W/m² | - |
| 1778022331 | 25.56° C | 42% | 1007.7 hPa | 0 mm | - | 7 W/m² | - |
| 1778019619 | 26.11° C | 37% | 1007.3 hPa | 0 mm | - | 60 W/m² | - |
* Rain latest hour (hover to see other rain measurements)
** Current wind speed in m/s (hover to see current wind gust speed)